createdAt,value
2023-06-30T00:00:10.591Z,5.6
2023-06-30T00:02:37.134Z,5.6
2023-06-30T00:05:03.880Z,6.6
2023-06-30T00:07:30.650Z,5.7
2023-06-30T00:09:57.340Z,6.1
2023-06-30T00:12:22.521Z,6
2023-06-30T00:14:49.230Z,7.1
2023-06-30T00:17:15.818Z,6.4
2023-06-30T00:19:42.653Z,5.8
2023-06-30T00:22:09.140Z,8.8
2023-06-30T00:24:35.922Z,6.2
2023-06-30T00:27:02.605Z,6.3
2023-06-30T00:29:29.270Z,6.7
2023-06-30T00:31:56.021Z,6.3
2023-06-30T00:34:22.736Z,6.2
2023-06-30T00:36:49.396Z,5.9
2023-06-30T00:39:16.084Z,6.6
2023-06-30T00:41:42.736Z,6.5
2023-06-30T00:44:09.446Z,6.7
2023-06-30T00:46:34.609Z,7.3
2023-06-30T00:49:01.259Z,6
2023-06-30T00:51:28.048Z,8.7
2023-06-30T00:56:21.417Z,7.7
2023-06-30T00:58:48.018Z,6.6
2023-06-30T01:01:14.612Z,6.4
2023-06-30T01:03:41.322Z,6.4
2023-06-30T01:06:07.996Z,5.6
2023-06-30T01:08:34.848Z,5.8
2023-06-30T01:11:01.515Z,7.1
2023-06-30T01:13:28.102Z,7.8
2023-06-30T01:15:54.738Z,6.3
2023-06-30T01:18:19.941Z,9
2023-06-30T01:20:46.780Z,8.2
2023-06-30T01:23:13.487Z,6.5
2023-06-30T01:25:40.084Z,6.4
2023-06-30T01:28:06.887Z,14.8
2023-06-30T01:30:33.513Z,10.1
2023-06-30T01:33:00.158Z,11.7
2023-06-30T01:35:26.758Z,12
2023-06-30T01:37:53.433Z,7.2
2023-06-30T01:40:20.111Z,6.8
2023-06-30T01:42:46.959Z,16.3
2023-06-30T01:45:13.654Z,18.4
2023-06-30T01:47:40.295Z,12.7
2023-06-30T01:50:05.382Z,6.9
2023-06-30T01:52:32.256Z,6.7
2023-06-30T01:54:58.743Z,8.3
2023-06-30T01:57:25.431Z,8.1
2023-06-30T01:59:52.290Z,7
2023-06-30T02:02:18.787Z,7.4
2023-06-30T02:04:45.488Z,7.1
2023-06-30T02:07:12.440Z,8.4
2023-06-30T02:09:39.020Z,7.8
2023-06-30T02:12:05.694Z,7.5
2023-06-30T02:14:32.439Z,7.4
2023-06-30T02:16:59.102Z,7.4
2023-06-30T02:19:25.579Z,7.7
2023-06-30T02:21:52.269Z,8.3
2023-06-30T02:24:17.706Z,8.9
2023-06-30T02:26:44.320Z,8.2
2023-06-30T02:29:11.028Z,7.9
2023-06-30T02:31:37.774Z,8.9
2023-06-30T02:34:04.446Z,9
2023-06-30T02:36:31.150Z,7.5
2023-06-30T02:38:57.646Z,8.7
2023-06-30T02:41:24.406Z,8.4
2023-06-30T02:43:51.101Z,7.6
2023-06-30T02:46:17.760Z,8.7
2023-06-30T02:48:44.511Z,8.5
2023-06-30T02:51:11.201Z,7.7
2023-06-30T02:53:37.888Z,7.3
2023-06-30T02:56:02.946Z,7.6
2023-06-30T02:58:29.771Z,7.8
2023-06-30T03:00:56.476Z,8.4
2023-06-30T03:03:23.213Z,8.2
2023-06-30T03:05:49.658Z,7.8
2023-06-30T03:08:16.363Z,7.4
2023-06-30T03:10:43.205Z,7.5
2023-06-30T03:13:09.830Z,7.6
2023-06-30T03:15:36.547Z,7.7
2023-06-30T03:18:03.089Z,7.9
2023-06-30T03:20:29.951Z,8.4
2023-06-30T03:22:56.655Z,8.8
2023-06-30T03:25:23.358Z,8.4
2023-06-30T03:27:48.474Z,9.5
2023-06-30T03:30:15.189Z,9.6
2023-06-30T03:32:41.849Z,10
2023-06-30T03:35:08.401Z,7.9
2023-06-30T03:37:35.197Z,8.6
2023-06-30T03:40:01.743Z,8.3
2023-06-30T03:42:28.636Z,9.6
2023-06-30T03:44:55.349Z,7.9
2023-06-30T03:47:21.914Z,8.9
2023-06-30T03:49:48.491Z,8.4
2023-06-30T03:52:15.395Z,14.7
2023-06-30T03:54:42.006Z,14.4
2023-06-30T03:57:08.581Z,13.9
2023-06-30T03:59:35.231Z,13.7
2023-06-30T04:02:00.457Z,17.1
2023-06-30T04:04:27.230Z,10.3
2023-06-30T04:06:53.863Z,8.3
2023-06-30T04:09:20.504Z,8
2023-06-30T04:11:47.317Z,8.2
2023-06-30T04:14:14.085Z,8.4
2023-06-30T04:16:40.749Z,8.9
2023-06-30T04:19:07.402Z,7.8
2023-06-30T04:21:34.054Z,8.7
2023-06-30T04:24:00.624Z,7.7
2023-06-30T04:26:27.461Z,8.6
2023-06-30T04:28:54.228Z,7.4
2023-06-30T04:31:20.740Z,8.2
2023-06-30T04:33:46.012Z,9.7
2023-06-30T04:36:11.207Z,8.9
2023-06-30T04:38:38.006Z,8.3
2023-06-30T04:41:04.484Z,8.9
2023-06-30T04:43:31.208Z,8.2
2023-06-30T04:45:58.059Z,8
2023-06-30T04:48:24.860Z,8.2
2023-06-30T04:50:51.313Z,8.4
2023-06-30T04:53:18.025Z,9.3
2023-06-30T04:55:44.670Z,9.1
2023-06-30T04:58:11.382Z,9.5
2023-06-30T05:00:37.973Z,9.9
2023-06-30T05:03:04.672Z,9.6
2023-06-30T05:05:31.564Z,9.9
2023-06-30T05:07:56.730Z,9.7
2023-06-30T05:10:23.236Z,10.2
2023-06-30T05:12:49.929Z,8.5
2023-06-30T05:15:16.611Z,9.3
2023-06-30T05:17:43.345Z,9.8
2023-06-30T05:20:09.986Z,11.9
2023-06-30T05:22:36.745Z,9
2023-06-30T05:25:03.507Z,12.7
2023-06-30T05:27:30.146Z,9.1
2023-06-30T05:29:56.704Z,10.7
2023-06-30T05:32:23.449Z,12.4
2023-06-30T05:34:50.225Z,10.3
2023-06-30T05:37:16.795Z,9.9
2023-06-30T05:39:41.994Z,8.9
2023-06-30T05:42:08.660Z,9.5
2023-06-30T05:44:35.462Z,11.5
2023-06-30T05:47:02.084Z,11.4
2023-06-30T05:49:28.719Z,9.3
2023-06-30T05:51:55.531Z,9.4
2023-06-30T05:54:22.172Z,11
2023-06-30T05:56:48.910Z,11
2023-06-30T05:59:15.590Z,15.3
2023-06-30T06:01:42.292Z,10.7
2023-06-30T06:04:08.826Z,11.6
2023-06-30T06:06:35.520Z,11.7
2023-06-30T06:09:02.413Z,14.3
2023-06-30T06:11:27.625Z,21.7
2023-06-30T06:13:54.270Z,17.9
2023-06-30T06:16:20.940Z,19.5
2023-06-30T06:18:47.597Z,22.7
2023-06-30T06:21:14.204Z,18.3
2023-06-30T06:23:40.856Z,17.7
2023-06-30T06:26:07.528Z,21.3
2023-06-30T06:28:34.294Z,19.6
2023-06-30T06:31:00.894Z,20.9
2023-06-30T06:33:27.575Z,23.7
2023-06-30T06:35:54.256Z,23.3
2023-06-30T06:38:21.024Z,22.6
2023-06-30T06:40:47.675Z,27.6
2023-06-30T06:43:14.378Z,24.3
2023-06-30T06:45:39.531Z,24.5
2023-06-30T06:48:06.352Z,24.4
2023-06-30T06:50:32.956Z,27.6
2023-06-30T06:52:59.743Z,33.3
2023-06-30T06:55:26.265Z,24.4
2023-06-30T06:57:52.974Z,29.5
2023-06-30T07:00:19.674Z,24.5
2023-06-30T07:02:46.381Z,30.2
2023-06-30T07:05:13.095Z,23.3
2023-06-30T07:07:39.860Z,31.5
2023-06-30T07:10:06.550Z,23.2
2023-06-30T07:12:33.235Z,32.5
2023-06-30T07:14:59.737Z,25.8
2023-06-30T07:17:25.152Z,25.7
2023-06-30T07:19:51.756Z,26.4
2023-06-30T07:22:18.364Z,32.6
2023-06-30T07:24:45.180Z,24
2023-06-30T07:27:11.830Z,30.1
2023-06-30T07:29:38.465Z,26.3
2023-06-30T07:32:05.077Z,25.6
2023-06-30T07:34:31.864Z,32.8
2023-06-30T07:36:58.627Z,29.1
2023-06-30T07:39:25.111Z,26.1
2023-06-30T07:41:51.831Z,26.5
2023-06-30T07:44:18.484Z,31.2
2023-06-30T07:46:45.227Z,23.7
2023-06-30T07:49:10.478Z,25.2
2023-06-30T07:51:37.210Z,20.4
2023-06-30T07:54:03.765Z,22.2
2023-06-30T07:56:30.566Z,24.5
2023-06-30T07:58:57.204Z,21.2
2023-06-30T08:01:23.808Z,24.4
2023-06-30T08:03:50.550Z,20.6
2023-06-30T08:06:17.176Z,19.6
2023-06-30T08:08:43.860Z,21.3
2023-06-30T08:11:10.745Z,19.1
2023-06-30T08:13:37.406Z,21.1
2023-06-30T08:16:04.054Z,18.9
2023-06-30T08:18:30.593Z,20.6
2023-06-30T08:20:55.863Z,22.1
2023-06-30T08:23:22.511Z,23.7
2023-06-30T08:25:49.360Z,22.3
2023-06-30T08:28:15.894Z,29.8
2023-06-30T08:30:42.694Z,25.1
2023-06-30T08:33:09.328Z,22.1
2023-06-30T08:35:35.963Z,25.1
2023-06-30T08:38:02.836Z,20.4
2023-06-30T08:40:29.437Z,22.4
2023-06-30T08:42:55.993Z,21.5
2023-06-30T08:45:22.667Z,21.2
2023-06-30T08:47:49.392Z,22.5
2023-06-30T08:50:16.044Z,21.1
2023-06-30T08:52:41.335Z,21.7
2023-06-30T08:55:08.033Z,25.1
2023-06-30T08:57:34.759Z,21.4
2023-06-30T09:00:01.362Z,21.3
2023-06-30T09:02:28.243Z,21.6
2023-06-30T09:04:54.686Z,24.5
2023-06-30T09:07:21.457Z,26.3
2023-06-30T09:09:48.055Z,25.6
2023-06-30T09:12:14.829Z,22.1
2023-06-30T09:14:41.515Z,23.9
2023-06-30T09:17:08.129Z,25.5
2023-06-30T09:19:34.944Z,25.7
2023-06-30T09:22:01.578Z,25.4
2023-06-30T09:24:26.867Z,25.6
2023-06-30T09:26:53.462Z,23.7
2023-06-30T09:29:20.214Z,21.3
2023-06-30T09:31:46.913Z,23
2023-06-30T09:34:13.585Z,26.6
2023-06-30T09:36:40.137Z,29.1
2023-06-30T09:39:06.833Z,29.4
2023-06-30T09:41:33.630Z,24.8
2023-06-30T09:44:00.248Z,27
2023-06-30T09:46:26.900Z,28.8
2023-06-30T09:48:53.600Z,25
2023-06-30T09:51:20.356Z,26.4
2023-06-30T09:53:46.889Z,22.3
2023-06-30T09:56:12.285Z,21.8
2023-06-30T09:58:38.809Z,23.3
2023-06-30T10:01:05.478Z,26.7
2023-06-30T10:03:32.345Z,26.8
2023-06-30T10:05:58.982Z,28.3
2023-06-30T10:08:25.623Z,25.7
2023-06-30T10:10:52.449Z,26.3
2023-06-30T10:13:19.025Z,25.8
2023-06-30T10:15:45.754Z,25.1
2023-06-30T10:18:12.557Z,25
2023-06-30T10:20:39.111Z,28.8
2023-06-30T10:23:05.646Z,26.5
2023-06-30T10:25:32.542Z,26.7
2023-06-30T10:27:57.705Z,25.7
2023-06-30T10:30:24.230Z,29.9
2023-06-30T10:32:50.920Z,28.2
2023-06-30T10:35:17.608Z,29.7
2023-06-30T10:37:44.413Z,26
2023-06-30T10:40:11.128Z,26.7
2023-06-30T10:42:37.648Z,24.6
2023-06-30T10:45:04.456Z,27.2
2023-06-30T10:47:31.236Z,30.4
2023-06-30T10:49:57.903Z,29.9
2023-06-30T10:52:24.429Z,29.1
2023-06-30T10:54:51.219Z,29.4
2023-06-30T10:57:17.987Z,25.3
2023-06-30T10:59:43.147Z,29.3
2023-06-30T11:02:09.664Z,31.9
2023-06-30T11:04:36.456Z,28.1
2023-06-30T11:07:03.049Z,28.9
2023-06-30T11:09:29.757Z,27.6
2023-06-30T11:11:56.494Z,25.4
2023-06-30T11:14:23.246Z,28.9
2023-06-30T11:16:49.793Z,28.3
2023-06-30T11:19:16.533Z,29.7
2023-06-30T11:21:43.134Z,28.7
2023-06-30T11:24:09.973Z,32.6
2023-06-30T11:26:36.714Z,29.9
2023-06-30T11:29:03.339Z,31.1
2023-06-30T11:31:29.876Z,29.9
2023-06-30T11:33:55.100Z,30
2023-06-30T11:36:21.774Z,28.8
2023-06-30T11:38:48.475Z,30.8
2023-06-30T11:41:15.138Z,34.4
2023-06-30T11:43:41.835Z,29.4
2023-06-30T11:46:08.574Z,30
2023-06-30T11:48:35.325Z,27.1
2023-06-30T11:51:01.909Z,31.4
2023-06-30T11:55:55.439Z,32.7
2023-06-30T11:58:22.016Z,33.4
2023-06-30T12:00:48.651Z,34.6
2023-06-30T12:03:15.362Z,33.9
2023-06-30T12:05:40.684Z,30.9
2023-06-30T12:08:07.227Z,35.7
2023-06-30T12:10:33.963Z,38.3
2023-06-30T12:13:00.748Z,33.8
2023-06-30T12:15:27.326Z,34.6
2023-06-30T12:17:54.175Z,37.1
2023-06-30T12:20:20.824Z,38.6
2023-06-30T12:22:47.390Z,40.8
2023-06-30T12:25:14.129Z,37.6
2023-06-30T12:27:40.900Z,34.2
2023-06-30T12:30:07.536Z,36.7
2023-06-30T12:32:34.138Z,40
2023-06-30T12:35:00.773Z,38.5
2023-06-30T12:37:27.638Z,40.2
2023-06-30T12:39:52.852Z,40.8
2023-06-30T12:42:19.488Z,38.9
2023-06-30T12:44:46.240Z,39.4
2023-06-30T12:47:12.879Z,41.6
2023-06-30T12:49:38.167Z,40.9
2023-06-30T12:54:31.499Z,41.1
2023-06-30T12:56:58.236Z,39.9
2023-06-30T12:59:24.940Z,42.9
2023-06-30T13:01:51.537Z,44.5
2023-06-30T13:04:18.092Z,42.1
2023-06-30T13:06:44.917Z,40.7
2023-06-30T13:09:11.566Z,43.1
2023-06-30T13:11:38.316Z,42.1
2023-06-30T13:14:04.758Z,40
2023-06-30T13:16:31.702Z,42.1
2023-06-30T13:18:58.236Z,39.7
2023-06-30T13:23:51.501Z,37.1
2023-06-30T13:28:45.047Z,33.9
2023-06-30T13:31:11.669Z,39.3
2023-06-30T13:33:36.818Z,35.6
2023-06-30T13:36:02.193Z,36
2023-06-30T13:38:28.856Z,35.7
2023-06-30T13:40:55.405Z,37.8
2023-06-30T13:43:22.238Z,38.1
2023-06-30T13:45:48.759Z,37.3
2023-06-30T13:48:15.615Z,38.9
2023-06-30T13:50:42.279Z,42.6
2023-06-30T13:53:08.910Z,37.7
2023-06-30T13:55:35.562Z,36.9
2023-06-30T13:58:02.336Z,40.8
2023-06-30T14:00:27.432Z,38.1
2023-06-30T14:02:54.113Z,37.7
2023-06-30T14:05:19.341Z,37.4
2023-06-30T14:07:46.185Z,37.6
2023-06-30T14:10:12.718Z,36.4
2023-06-30T14:12:39.522Z,39.6
2023-06-30T14:15:06.184Z,36
2023-06-30T14:17:32.878Z,32.8
2023-06-30T14:19:59.456Z,38.8
2023-06-30T14:22:26.174Z,34.4
2023-06-30T14:24:52.876Z,38.9
2023-06-30T14:27:19.503Z,36.7
2023-06-30T14:29:46.250Z,34
2023-06-30T14:32:12.985Z,36.1
2023-06-30T14:34:39.653Z,40
2023-06-30T14:37:04.909Z,35.6
2023-06-30T14:39:31.457Z,34.3
2023-06-30T14:41:58.226Z,35.1
2023-06-30T14:46:51.513Z,35.1
2023-06-30T14:49:18.195Z,34.7
2023-06-30T14:51:44.909Z,35.5
2023-06-30T14:54:11.650Z,40
2023-06-30T14:56:38.347Z,38.1
2023-06-30T14:59:05.034Z,38.8
2023-06-30T15:01:31.625Z,39
2023-06-30T15:03:58.533Z,37.5
2023-06-30T15:06:25.160Z,46.6
2023-06-30T15:08:50.222Z,54
2023-06-30T15:11:16.920Z,51.3
2023-06-30T15:13:43.760Z,54.3
2023-06-30T15:16:10.529Z,52
2023-06-30T15:18:37.156Z,59.6
2023-06-30T15:21:03.666Z,61.9
2023-06-30T15:23:30.521Z,58.6
2023-06-30T15:25:57.166Z,57.3
2023-06-30T15:28:23.673Z,56.4
2023-06-30T15:30:50.393Z,49.7
2023-06-30T15:33:17.253Z,52
2023-06-30T15:35:43.950Z,49.6
2023-06-30T15:38:10.567Z,54.3
2023-06-30T15:40:35.832Z,48.8
2023-06-30T15:43:02.315Z,48.9
2023-06-30T15:45:29.088Z,48.3
2023-06-30T15:47:55.889Z,50.4
2023-06-30T15:50:22.548Z,46.9
2023-06-30T15:52:49.255Z,51.7
2023-06-30T15:55:15.921Z,49.7
2023-06-30T15:57:42.538Z,49.3
2023-06-30T16:00:09.139Z,48.2
2023-06-30T16:02:35.781Z,48.9
2023-06-30T16:05:02.596Z,45.5
2023-06-30T16:07:29.346Z,48.9
2023-06-30T16:09:55.824Z,49.8
2023-06-30T16:12:21.187Z,52.4
2023-06-30T16:14:47.864Z,43.6
2023-06-30T16:17:14.552Z,42.9
2023-06-30T16:19:41.336Z,36.8
2023-06-30T16:22:08.023Z,35.2
2023-06-30T16:24:34.607Z,36.8
2023-06-30T16:27:01.307Z,35.1
2023-06-30T16:29:28.020Z,32.3
2023-06-30T16:31:54.680Z,35.8
2023-06-30T16:34:21.447Z,32.9
2023-06-30T16:36:48.105Z,32
2023-06-30T16:39:14.707Z,32.6
2023-06-30T16:41:41.346Z,32.3
2023-06-30T16:44:07.956Z,33.6
2023-06-30T16:46:34.695Z,32.3
2023-06-30T16:48:59.945Z,36.6
2023-06-30T16:51:26.570Z,33.5
2023-06-30T16:53:53.244Z,31.7
2023-06-30T16:56:19.934Z,32.9
2023-06-30T16:58:46.683Z,30.6
2023-06-30T17:01:13.367Z,31.3
2023-06-30T17:03:39.998Z,29.2
2023-06-30T17:08:33.364Z,32.7
2023-06-30T17:11:00.027Z,30.6
2023-06-30T17:13:26.708Z,31.7
2023-06-30T17:15:53.533Z,30.1
2023-06-30T17:18:20.151Z,35.4
2023-06-30T17:20:46.760Z,30.3
2023-06-30T17:23:13.445Z,31.4
2023-06-30T17:25:40.177Z,31.7
2023-06-30T17:28:05.374Z,29.2
2023-06-30T17:30:32.086Z,34.5
2023-06-30T17:32:58.777Z,32.3
2023-06-30T17:35:25.417Z,28.7
2023-06-30T17:37:52.236Z,29.1
2023-06-30T17:40:18.818Z,33.8
2023-06-30T17:42:45.481Z,30.7
2023-06-30T17:45:12.214Z,27.6
2023-06-30T17:47:38.838Z,30.3
2023-06-30T17:50:05.524Z,32.8
2023-06-30T17:52:32.194Z,32.4
2023-06-30T17:54:58.907Z,33.3
2023-06-30T17:57:25.628Z,31.1
2023-06-30T17:59:52.263Z,30.6
2023-06-30T18:02:17.457Z,32.6
2023-06-30T18:04:44.144Z,31.7
2023-06-30T18:07:10.866Z,28.9
2023-06-30T18:09:37.531Z,30.2
2023-06-30T18:12:04.207Z,31
2023-06-30T18:14:30.946Z,28.7
2023-06-30T18:16:57.586Z,32.8
2023-06-30T18:19:24.289Z,32.7
2023-06-30T18:21:51.081Z,29.1
2023-06-30T18:24:17.657Z,30.4
2023-06-30T18:26:44.303Z,32.1
2023-06-30T18:29:11.025Z,29.8
2023-06-30T18:31:37.713Z,29.9
2023-06-30T18:34:04.349Z,31.4
2023-06-30T18:36:29.579Z,31.4
2023-06-30T18:38:56.275Z,27.7
2023-06-30T18:41:22.949Z,29.1
2023-06-30T18:43:49.638Z,29.7
2023-06-30T18:46:16.317Z,30.2
2023-06-30T18:48:43.023Z,29
2023-06-30T18:51:09.719Z,30.7
2023-06-30T18:53:36.414Z,27.5
2023-06-30T18:56:03.051Z,29.9
2023-06-30T18:58:29.737Z,28
2023-06-30T19:00:56.420Z,28.9
2023-06-30T19:03:23.106Z,27.9
2023-06-30T19:05:49.800Z,28.9
2023-06-30T19:08:16.514Z,28.3
2023-06-30T19:10:43.169Z,29.5
2023-06-30T19:13:08.506Z,26.3
2023-06-30T19:15:35.058Z,31.2
2023-06-30T19:18:01.752Z,30.9
2023-06-30T19:20:28.431Z,29.7
2023-06-30T19:22:55.191Z,32.3
2023-06-30T19:25:21.803Z,32.6
2023-06-30T19:27:48.492Z,34.3
2023-06-30T19:30:15.172Z,32.3
2023-06-30T19:32:41.857Z,29.4
2023-06-30T19:35:08.608Z,28.1
2023-06-30T19:37:35.208Z,29
2023-06-30T19:40:01.980Z,30.4
2023-06-30T19:42:28.721Z,27.7
2023-06-30T19:44:55.287Z,31.2
2023-06-30T19:47:21.958Z,30
2023-06-30T19:49:48.638Z,29.2
2023-06-30T19:52:15.335Z,31.9
2023-06-30T19:54:42.090Z,30.2
2023-06-30T19:57:08.705Z,31.2
2023-06-30T19:59:33.997Z,34
2023-06-30T20:02:00.600Z,30.5
2023-06-30T20:04:27.283Z,32.1
2023-06-30T20:06:54.061Z,27.3
2023-06-30T20:09:20.641Z,30.5
2023-06-30T20:11:47.440Z,27.7
2023-06-30T20:14:14.228Z,28.2
2023-06-30T20:16:40.765Z,27.6
2023-06-30T20:19:07.533Z,25.2
2023-06-30T20:21:34.211Z,28.6
2023-06-30T20:24:00.911Z,29.9
2023-06-30T20:26:27.560Z,28.8
2023-06-30T20:28:54.281Z,28
2023-06-30T20:31:20.804Z,28.6
2023-06-30T20:33:47.647Z,29.6
2023-06-30T20:36:14.163Z,28.6
2023-06-30T20:41:07.714Z,30.6
2023-06-30T20:43:34.358Z,29.3
2023-06-30T20:46:01.091Z,31.6
2023-06-30T20:48:27.642Z,29.2
2023-06-30T20:50:54.279Z,27.3
2023-06-30T20:53:21.142Z,34.1
2023-06-30T20:55:47.799Z,26.2
2023-06-30T20:58:13.030Z,27.6
2023-06-30T21:00:38.230Z,27.4
2023-06-30T21:03:04.829Z,26.1
2023-06-30T21:05:31.474Z,25.6
2023-06-30T21:07:58.356Z,24.5
2023-06-30T21:10:25.092Z,23
2023-06-30T21:12:51.673Z,27.1
2023-06-30T21:15:18.399Z,28.9
2023-06-30T21:17:45.096Z,26.8
2023-06-30T21:20:11.729Z,27.1
2023-06-30T21:22:38.315Z,24.7
2023-06-30T21:25:05.195Z,25.9
2023-06-30T21:27:31.822Z,26.7
2023-06-30T21:29:58.464Z,24.1
2023-06-30T21:32:23.617Z,24.9
2023-06-30T21:34:50.380Z,25.4
2023-06-30T21:37:16.904Z,25.8
2023-06-30T21:39:43.586Z,26.9
2023-06-30T21:42:10.457Z,26.2
2023-06-30T21:44:37.135Z,25.5
2023-06-30T21:47:03.659Z,25.7
2023-06-30T21:49:30.440Z,25.2
2023-06-30T21:51:57.002Z,26
2023-06-30T21:54:23.812Z,27.9
2023-06-30T21:56:50.367Z,27
2023-06-30T21:59:17.254Z,26.1
2023-06-30T22:01:43.853Z,27.5
2023-06-30T22:04:10.585Z,26.5
2023-06-30T22:06:35.700Z,24.2
2023-06-30T22:09:02.580Z,23.5
2023-06-30T22:11:29.064Z,24.6
2023-06-30T22:13:55.812Z,26.2
2023-06-30T22:16:22.609Z,28.4
2023-06-30T22:18:49.236Z,23.9
2023-06-30T22:21:15.889Z,23.9
2023-06-30T22:23:42.599Z,27.2
2023-06-30T22:26:09.129Z,20.9
2023-06-30T22:28:36.017Z,26.4
2023-06-30T22:31:02.672Z,23.6
2023-06-30T22:33:29.370Z,24.7
2023-06-30T22:35:55.992Z,27
2023-06-30T22:38:22.777Z,26.6
2023-06-30T22:40:47.917Z,24.5
2023-06-30T22:43:14.457Z,27.1
2023-06-30T22:45:41.277Z,25.2
2023-06-30T22:48:08.051Z,23.7
2023-06-30T22:50:34.573Z,25.7
2023-06-30T22:53:01.399Z,27.6
2023-06-30T22:55:28.038Z,28.2
2023-06-30T22:57:54.748Z,23.7
2023-06-30T23:00:21.341Z,24.7
2023-06-30T23:02:48.135Z,23.6
2023-06-30T23:05:14.757Z,25.3
2023-06-30T23:07:41.296Z,25.4
2023-06-30T23:10:08.168Z,26.5
2023-06-30T23:12:33.414Z,27.8
2023-06-30T23:14:59.884Z,24.9
2023-06-30T23:17:26.568Z,25.4
2023-06-30T23:19:53.390Z,22.3
2023-06-30T23:22:20.249Z,25.5
2023-06-30T23:24:46.826Z,25.3
2023-06-30T23:27:13.529Z,25
2023-06-30T23:29:40.157Z,23.1
2023-06-30T23:32:06.863Z,27.9
2023-06-30T23:34:33.526Z,23.3
2023-06-30T23:37:00.163Z,24.8
2023-06-30T23:39:26.938Z,23.4
2023-06-30T23:41:53.404Z,22.7
2023-06-30T23:44:18.798Z,22.7
2023-06-30T23:46:45.429Z,22.1
2023-06-30T23:49:12.195Z,20.9
2023-06-30T23:51:38.731Z,19.6
2023-06-30T23:54:05.414Z,21.5
2023-06-30T23:56:32.193Z,23.9
2023-06-30T23:58:58.925Z,19.3
